Time;durP1;ratioP1;P1;durP2;ratioP2;P2;SDS_P1;SDS_P2;PMS_P1;PMS_P2;Temp;Humidity;BMP_temperature;BMP_pressure;BME280_temperature;BME280_humidity;BME280_pressure;Samples;Min_cycle;Max_cycle;Signal;HPM_P1;HPM_P2
2021/08/11 00:00:42;;;;;;;;;;;19.50;93.30;;;;;;4316222;33;44582;-80
2021/08/11 00:03:12;;;;;;;;;;;19.50;93.30;;;;;;4317101;33;43478;-80
2021/08/11 00:05:41;;;;;;;;;;;19.50;93.30;;;;;;4315915;33;42984;-80
2021/08/11 00:08:08;;;;;;;;;;;19.50;93.30;;;;;;4316879;33;43901;-80
2021/08/11 00:10:35;;;;;;;;;;;19.50;93.30;;;;;;4316751;33;43510;-80
2021/08/11 00:13:02;;;;;;;;;;;19.50;93.30;;;;;;4317131;33;43677;-80
2021/08/11 00:15:29;;;;;;;;;;;19.50;93.30;;;;;;4317291;33;43077;-79
2021/08/11 00:17:56;;;;;;;;;;;19.50;93.30;;;;;;4315748;33;42559;-80
2021/08/11 00:20:28;;;;;;;;;;;19.50;93.30;;;;;;4316683;33;43757;-80
2021/08/11 00:22:55;;;;;;;;;;;19.50;93.30;;;;;;4316919;33;43871;-80
2021/08/11 00:25:25;;;;;;;;;;;19.50;93.30;;;;;;4316949;33;42704;-80
2021/08/11 00:27:52;;;;;;;;;;;19.40;93.30;;;;;;4316944;33;44200;-80
2021/08/11 00:30:19;;;;;;;;;;;19.40;93.30;;;;;;4315895;33;42884;-79
2021/08/11 00:32:49;;;;;;;;;;;19.40;93.30;;;;;;4316936;33;43862;-80
2021/08/11 00:35:16;;;;;;;;;;;19.40;93.30;;;;;;4316552;33;43288;-80
2021/08/11 00:37:46;;;;;;;;;;;19.40;93.30;;;;;;4315344;33;42813;-80
2021/08/11 00:40:14;;;;;;;;;;;19.40;93.30;;;;;;4316664;33;43486;-80
2021/08/11 00:42:41;;;;;;;;;;;19.40;93.30;;;;;;4315495;33;45315;-80
2021/08/11 00:45:13;;;;;;;;;;;19.40;93.30;;;;;;4316364;33;43665;-80
2021/08/11 00:47:40;;;;;;;;;;;19.40;93.30;;;;;;4316769;33;44183;-79
2021/08/11 00:50:09;;;;;;;;;;;19.40;93.30;;;;;;4316574;33;44106;-80
2021/08/11 00:52:36;;;;;;;;;;;19.40;93.30;;;;;;4316946;33;43237;-80
2021/08/11 00:55:08;;;;;;;;;;;19.30;93.20;;;;;;4316176;33;43714;-80
2021/08/11 00:57:36;;;;;;;;;;;19.30;93.30;;;;;;4316705;33;44195;-79
2021/08/11 01:00:03;;;;;;;;;;;19.30;93.30;;;;;;4316252;33;44303;-79
2021/08/11 01:02:33;;;;;;;;;;;19.30;93.30;;;;;;4315927;33;43880;-79
2021/08/11 01:05:01;;;;;;;;;;;19.40;93.40;;;;;;4316515;33;44019;-79
2021/08/11 01:07:28;;;;;;;;;;;19.30;93.30;;;;;;4316455;33;43352;-80
2021/08/11 01:09:56;;;;;;;;;;;19.30;93.40;;;;;;4314899;33;43332;-79
2021/08/11 01:12:24;;;;;;;;;;;19.30;93.40;;;;;;4316527;33;43124;-80
2021/08/11 01:14:51;;;;;;;;;;;19.30;93.40;;;;;;4315981;33;43011;-80
2021/08/11 01:17:19;;;;;;;;;;;19.30;93.40;;;;;;4316431;33;43197;-80
2021/08/11 01:19:46;;;;;;;;;;;19.30;93.40;;;;;;4316353;33;43079;-80
2021/08/11 01:22:19;;;;;;;;;;;19.30;93.40;;;;;;4316183;33;42848;-80
2021/08/11 01:24:51;;;;;;;;;;;19.30;93.40;;;;;;4315863;33;41883;-80
2021/08/11 01:27:33;;;;;;;;;;;19.30;93.40;;;;;;4315441;33;43474;-80
2021/08/11 01:30:02;;;;;;;;;;;19.30;93.40;;;;;;4316366;33;44206;-80
2021/08/11 01:32:29;;;;;;;;;;;19.30;93.40;;;;;;4316102;33;43441;-80
2021/08/11 01:34:58;;;;;;;;;;;19.30;93.40;;;;;;4316414;33;43521;-80
2021/08/11 01:37:27;;;;;;;;;;;19.30;93.40;;;;;;4315919;33;43449;-80
2021/08/11 01:39:59;;;;;;;;;;;19.20;93.40;;;;;;4315873;33;43286;-80
2021/08/11 01:42:33;;;;;;;;;;;19.30;93.40;;;;;;4315150;33;43149;-79
2021/08/11 01:45:12;;;;;;;;;;;19.20;93.40;;;;;;4315881;33;43278;-79
2021/08/11 01:47:47;;;;;;;;;;;19.20;93.40;;;;;;4316275;33;42723;-79
2021/08/11 01:50:21;;;;;;;;;;;19.20;93.40;;;;;;4315691;33;42926;-79
2021/08/11 01:52:49;;;;;;;;;;;19.20;93.40;;;;;;4315123;33;43067;-79
2021/08/11 01:55:17;;;;;;;;;;;19.20;93.40;;;;;;4315490;33;44290;-80
2021/08/11 01:57:47;;;;;;;;;;;19.20;93.40;;;;;;4314815;33;43850;-80
2021/08/11 02:00:15;;;;;;;;;;;19.20;93.40;;;;;;4316160;33;43523;-79
2021/08/11 02:02:44;;;;;;;;;;;19.20;93.40;;;;;;4315522;33;44208;-79
2021/08/11 02:05:12;;;;;;;;;;;19.20;93.40;;;;;;4314922;33;44232;-79
2021/08/11 02:07:39;;;;;;;;;;;19.20;93.40;;;;;;4315432;33;42919;-79
2021/08/11 02:10:07;;;;;;;;;;;19.10;93.40;;;;;;4315801;33;43187;-79
2021/08/11 02:12:37;;;;;;;;;;;19.10;93.40;;;;;;4314637;33;43271;-79
2021/08/11 02:15:06;;;;;;;;;;;19.10;93.30;;;;;;4315605;33;43443;-80
2021/08/11 02:17:36;;;;;;;;;;;19.10;93.40;;;;;;4314401;33;42870;-80
2021/08/11 02:20:03;;;;;;;;;;;19.10;93.30;;;;;;4315778;33;43678;-79
2021/08/11 02:22:33;;;;;;;;;;;19.10;93.40;;;;;;4315330;33;42896;-80
2021/08/11 02:25:04;;;;;;;;;;;19.10;93.40;;;;;;4314237;33;42655;-80
2021/08/11 02:27:34;;;;;;;;;;;19.10;93.80;;;;;;4315882;33;43566;-79
2021/08/11 02:30:09;;;;;;;;;;;19.10;93.40;;;;;;4314221;33;43560;-79
2021/08/11 02:32:42;;;;;;;;;;;19.10;93.40;;;;;;4315849;33;45068;-79
2021/08/11 02:35:08;;;;;;;;;;;19.10;93.40;;;;;;4315765;33;42082;-79
2021/08/11 02:37:39;;;;;;;;;;;19.10;93.40;;;;;;4314164;33;43685;-79
2021/08/11 02:40:08;;;;;;;;;;;19.10;93.40;;;;;;4315205;33;42514;-79
2021/08/11 02:42:54;;;;;;;;;;;19.10;93.40;;;;;;4315146;33;44122;-80
2021/08/11 02:45:23;;;;;;;;;;;19.00;93.30;;;;;;4315842;33;43051;-79
2021/08/11 02:47:50;;;;;;;;;;;19.00;93.30;;;;;;4315590;33;42673;-79
2021/08/11 02:50:17;;;;;;;;;;;19.10;93.40;;;;;;4315173;33;43685;-79
2021/08/11 02:52:45;;;;;;;;;;;19.00;93.30;;;;;;4315166;33;43715;-79
2021/08/11 02:55:14;;;;;;;;;;;19.00;93.30;;;;;;4315593;33;44221;-80
2021/08/11 02:57:41;;;;;;;;;;;19.00;93.40;;;;;;4315850;33;20482;-80
2021/08/11 03:00:08;;;;;;;;;;;19.00;93.30;;;;;;4315131;33;43962;-80
2021/08/11 03:02:35;;;;;;;;;;;19.00;93.40;;;;;;4314952;33;42775;-80
2021/08/11 03:05:03;;;;;;;;;;;18.90;93.40;;;;;;4316879;33;43887;-80
2021/08/11 03:07:31;;;;;;;;;;;18.90;93.40;;;;;;4318461;33;43026;-80
2021/08/11 03:09:58;;;;;;;;;;;18.90;93.40;;;;;;4316544;33;43751;-80
2021/08/11 03:12:26;;;;;;;;;;;18.90;93.50;;;;;;4317993;33;43183;-80
2021/08/11 03:14:57;;;;;;;;;;;18.90;93.50;;;;;;4316430;33;44098;-80
2021/08/11 03:17:30;;;;;;;;;;;18.90;93.50;;;;;;4317689;33;42230;-80
2021/08/11 03:19:57;;;;;;;;;;;18.90;93.60;;;;;;4318188;33;43177;-80
2021/08/11 03:22:24;;;;;;;;;;;18.90;93.90;;;;;;4317024;33;43970;-80
2021/08/11 03:24:55;;;;;;;;;;;18.90;93.60;;;;;;4316368;33;43967;-80
2021/08/11 03:27:22;;;;;;;;;;;18.90;93.60;;;;;;4317389;33;42739;-81
2021/08/11 03:29:49;;;;;;;;;;;18.90;93.60;;;;;;4317961;33;43048;-80
2021/08/11 03:32:21;;;;;;;;;;;18.90;93.70;;;;;;4316458;33;44511;-80
2021/08/11 03:34:48;;;;;;;;;;;18.90;93.70;;;;;;4317278;33;44065;-80
2021/08/11 03:37:16;;;;;;;;;;;18.90;93.70;;;;;;4317804;33;43906;-80
2021/08/11 03:39:44;;;;;;;;;;;18.90;93.70;;;;;;4317644;33;43071;-80
2021/08/11 03:42:12;;;;;;;;;;;18.90;93.70;;;;;;4316129;33;42617;-80
2021/08/11 03:44:39;;;;;;;;;;;18.90;93.70;;;;;;4316074;33;43626;-80
2021/08/11 03:47:06;;;;;;;;;;;18.90;93.70;;;;;;4317267;33;43780;-80
2021/08/11 03:49:33;;;;;;;;;;;18.90;93.80;;;;;;4317382;33;43782;-81
2021/08/11 03:52:00;;;;;;;;;;;18.90;93.80;;;;;;4317223;33;43482;-80
2021/08/11 03:54:27;;;;;;;;;;;18.80;93.80;;;;;;4316051;33;42886;-79
2021/08/11 03:56:54;;;;;;;;;;;18.90;93.80;;;;;;4317412;33;42811;-80
2021/08/11 03:59:21;;;;;;;;;;;18.80;93.80;;;;;;4315905;33;45083;-80
2021/08/11 04:01:53;;;;;;;;;;;18.90;93.80;;;;;;4315786;33;42902;-79
2021/08/11 04:04:21;;;;;;;;;;;18.80;93.80;;;;;;4317080;33;43637;-80
2021/08/11 04:06:48;;;;;;;;;;;18.80;93.80;;;;;;4317266;33;44070;-80
2021/08/11 04:09:20;;;;;;;;;;;18.80;93.80;;;;;;4316170;33;42317;-79
2021/08/11 04:11:47;;;;;;;;;;;18.80;93.80;;;;;;4317235;33;45104;-80
2021/08/11 04:14:14;;;;;;;;;;;18.80;93.80;;;;;;4317419;33;43916;-80
2021/08/11 04:16:42;;;;;;;;;;;18.80;93.80;;;;;;4316307;33;42854;-80
2021/08/11 04:19:11;;;;;;;;;;;18.80;93.80;;;;;;4315931;33;43574;-79
2021/08/11 04:21:40;;;;;;;;;;;18.80;93.80;;;;;;4315597;33;44225;-80
2021/08/11 04:24:08;;;;;;;;;;;18.80;93.80;;;;;;4317046;33;43583;-80
2021/08/11 04:26:35;;;;;;;;;;;18.80;93.80;;;;;;4316737;33;42957;-80
2021/08/11 04:29:02;;;;;;;;;;;18.80;93.80;;;;;;4317058;33;43861;-80
2021/08/11 04:31:31;;;;;;;;;;;18.80;93.80;;;;;;4317108;33;42956;-80
2021/08/11 04:33:58;;;;;;;;;;;18.80;93.80;;;;;;4316005;33;43241;-80
2021/08/11 04:36:25;;;;;;;;;;;18.80;93.80;;;;;;4316916;33;43884;-80
2021/08/11 04:38:52;;;;;;;;;;;18.80;93.80;;;;;;4316520;33;44227;-81
2021/08/11 04:41:19;;;;;;;;;;;18.80;93.80;;;;;;4316417;33;43571;-80
2021/08/11 04:43:46;;;;;;;;;;;18.70;93.80;;;;;;4316393;33;43170;-80
2021/08/11 04:46:14;;;;;;;;;;;18.70;93.80;;;;;;4315452;33;43896;-80
2021/08/11 04:48:41;;;;;;;;;;;18.70;93.80;;;;;;4316237;33;42580;-79
2021/08/11 04:51:08;;;;;;;;;;;18.70;93.80;;;;;;4316659;33;43972;-80
2021/08/11 04:53:38;;;;;;;;;;;18.70;93.80;;;;;;4316457;33;43926;-79
2021/08/11 04:56:05;;;;;;;;;;;18.70;93.80;;;;;;4315083;33;43679;-80
2021/08/11 04:58:32;;;;;;;;;;;18.70;93.80;;;;;;4316266;33;43654;-80
2021/08/11 05:00:59;;;;;;;;;;;18.70;93.80;;;;;;4316485;33;44640;-80
2021/08/11 05:03:26;;;;;;;;;;;18.70;93.80;;;;;;4316392;33;42164;-80
2021/08/11 05:05:54;;;;;;;;;;;18.70;93.80;;;;;;4315951;33;43179;-80
2021/08/11 05:08:21;;;;;;;;;;;18.70;93.80;;;;;;4316187;33;43064;-80
2021/08/11 05:10:48;;;;;;;;;;;18.60;93.80;;;;;;4315090;33;42904;-79
2021/08/11 05:13:15;;;;;;;;;;;18.70;93.80;;;;;;4316065;33;42092;-80
2021/08/11 05:15:42;;;;;;;;;;;18.60;93.80;;;;;;4316278;33;43320;-80
2021/08/11 05:18:11;;;;;;;;;;;18.60;93.80;;;;;;4316279;33;42927;-80
2021/08/11 05:20:41;;;;;;;;;;;18.60;93.90;;;;;;4315150;33;43898;-80
2021/08/11 05:23:11;;;;;;;;;;;18.60;93.80;;;;;;4315986;33;43496;-80
2021/08/11 05:25:38;;;;;;;;;;;18.60;93.80;;;;;;4316476;33;44199;-80
2021/08/11 05:28:08;;;;;;;;;;;18.60;93.80;;;;;;4316326;33;44010;-80
2021/08/11 05:30:42;;;;;;;;;;;18.60;93.80;;;;;;4315726;33;20403;-80
2021/08/11 05:33:09;;;;;;;;;;;18.60;93.80;;;;;;4316195;33;43647;-80
2021/08/11 05:35:36;;;;;;;;;;;18.60;93.80;;;;;;4315805;33;43568;-80
2021/08/11 05:38:06;;;;;;;;;;;18.60;94.20;;;;;;4315875;33;42510;-80
2021/08/11 05:40:33;;;;;;;;;;;18.60;93.80;;;;;;4314543;33;43745;-79
2021/08/11 05:43:00;;;;;;;;;;;18.50;93.80;;;;;;4316074;33;43858;-80
2021/08/11 05:45:27;;;;;;;;;;;18.50;93.80;;;;;;4315917;33;42803;-80
2021/08/11 05:47:54;;;;;;;;;;;18.50;93.90;;;;;;4315744;33;42999;-80
2021/08/11 05:50:22;;;;;;;;;;;18.50;93.90;;;;;;4315569;33;43065;-80
2021/08/11 05:52:49;;;;;;;;;;;18.60;93.90;;;;;;4314697;33;43641;-80
2021/08/11 05:55:16;;;;;;;;;;;18.50;93.90;;;;;;4316003;33;44172;-80
2021/08/11 05:57:43;;;;;;;;;;;18.50;93.90;;;;;;4315939;33;45494;-79
2021/08/11 06:00:11;;;;;;;;;;;18.50;93.90;;;;;;4315896;33;43905;-80
2021/08/11 06:02:41;;;;;;;;;;;18.50;94.00;;;;;;4315367;33;43267;-80
2021/08/11 06:05:08;;;;;;;;;;;18.50;94.00;;;;;;4315507;33;43117;-80
2021/08/11 06:07:38;;;;;;;;;;;18.50;94.00;;;;;;4315157;33;43487;-80
2021/08/11 06:10:06;;;;;;;;;;;18.50;94.10;;;;;;4315400;33;44180;-80
2021/08/11 06:12:36;;;;;;;;;;;18.50;94.10;;;;;;4314879;33;43906;-82
2021/08/11 06:15:04;;;;;;;;;;;18.50;94.10;;;;;;4315747;33;42388;-80
2021/08/11 06:17:31;;;;;;;;;;;18.50;94.10;;;;;;4314823;33;45048;-80
2021/08/11 06:19:58;;;;;;;;;;;18.50;94.20;;;;;;4315599;33;44175;-80
2021/08/11 06:22:28;;;;;;;;;;;18.50;94.20;;;;;;4315348;33;43151;-80
2021/08/11 06:24:55;;;;;;;;;;;18.50;94.20;;;;;;4314509;33;43390;-80
2021/08/11 06:27:22;;;;;;;;;;;18.50;94.30;;;;;;4315254;33;43547;-82
2021/08/11 06:29:49;;;;;;;;;;;18.50;94.30;;;;;;4315302;33;42787;-80
2021/08/11 06:32:18;;;;;;;;;;;18.50;94.30;;;;;;4314721;33;43014;-80
2021/08/11 06:34:49;;;;;;;;;;;18.50;94.30;;;;;;4314565;33;43102;-80
2021/08/11 06:37:18;;;;;;;;;;;18.50;94.40;;;;;;4315587;33;42955;-80
2021/08/11 06:39:48;;;;;;;;;;;18.50;94.40;;;;;;4316119;33;46063;-80
2021/08/11 06:42:22;;;;;;;;;;;18.50;94.40;;;;;;4318099;33;42903;-80
2021/08/11 06:44:51;;;;;;;;;;;18.50;94.50;;;;;;4317449;33;43962;-80
2021/08/11 06:47:19;;;;;;;;;;;18.50;94.50;;;;;;4317057;33;43016;-81
2021/08/11 06:49:46;;;;;;;;;;;18.50;94.60;;;;;;4317880;33;44847;-81
2021/08/11 06:52:24;;;;;;;;;;;18.50;94.60;;;;;;4317296;33;43944;-81
2021/08/11 06:54:56;;;;;;;;;;;18.50;94.60;;;;;;4316948;33;43703;-81
2021/08/11 06:57:23;;;;;;;;;;;18.50;94.60;;;;;;4316966;33;42854;-81
2021/08/11 06:59:53;;;;;;;;;;;18.50;94.60;;;;;;4316999;33;43800;-80
2021/08/11 07:02:20;;;;;;;;;;;18.50;94.70;;;;;;4318520;33;20490;-81
2021/08/11 07:04:47;;;;;;;;;;;18.50;94.70;;;;;;4316577;33;42633;-81
2021/08/11 07:07:14;;;;;;;;;;;18.50;94.80;;;;;;4318128;33;43206;-81
2021/08/11 07:09:41;;;;;;;;;;;18.50;94.80;;;;;;4317143;33;45568;-81
2021/08/11 07:12:08;;;;;;;;;;;18.60;94.90;;;;;;4316767;33;44017;-81
2021/08/11 07:14:41;;;;;;;;;;;18.50;94.80;;;;;;4317588;33;43882;-81
2021/08/11 07:17:08;;;;;;;;;;;18.50;94.80;;;;;;4317668;33;42985;-81
2021/08/11 07:19:39;;;;;;;;;;;18.50;94.90;;;;;;4318056;33;43004;-81
2021/08/11 07:22:10;;;;;;;;;;;18.50;94.90;;;;;;4316483;33;43479;-81
2021/08/11 07:24:37;;;;;;;;;;;18.60;94.90;;;;;;4316424;33;44616;-81
2021/08/11 07:27:04;;;;;;;;;;;18.50;94.90;;;;;;4316751;33;43927;-81
2021/08/11 07:29:34;;;;;;;;;;;18.50;94.90;;;;;;4316304;33;43136;-81
2021/08/11 07:32:04;;;;;;;;;;;18.60;94.90;;;;;;4316685;33;45073;-81
2021/08/11 07:34:34;;;;;;;;;;;18.60;94.90;;;;;;4317432;33;42790;-81
2021/08/11 07:37:01;;;;;;;;;;;18.50;94.90;;;;;;4317275;33;42508;-81
2021/08/11 07:39:28;;;;;;;;;;;18.50;95.00;;;;;;4317241;33;44200;-81
2021/08/11 07:41:56;;;;;;;;;;;18.50;94.90;;;;;;4316249;33;42721;-82
2021/08/11 07:44:26;;;;;;;;;;;18.50;95.00;;;;;;4316232;33;43052;-80
2021/08/11 07:46:53;;;;;;;;;;;18.60;95.00;;;;;;4317472;33;43898;-80
2021/08/11 07:49:20;;;;;;;;;;;18.50;94.90;;;;;;4317209;33;44640;-80
2021/08/11 07:51:47;;;;;;;;;;;18.60;95.00;;;;;;4315743;33;43947;-80
2021/08/11 07:54:17;;;;;;;;;;;18.50;94.90;;;;;;4317534;33;43296;-80
2021/08/11 07:56:44;;;;;;;;;;;18.50;94.90;;;;;;4316330;33;43037;-81
2021/08/11 07:59:11;;;;;;;;;;;18.50;95.00;;;;;;4316411;33;43857;-80
2021/08/11 08:01:38;;;;;;;;;;;18.50;95.00;;;;;;4316115;33;43172;-81
2021/08/11 08:04:08;;;;;;;;;;;18.50;95.00;;;;;;4317629;33;43722;-81
2021/08/11 08:06:36;;;;;;;;;;;18.50;95.00;;;;;;4316961;33;43989;-81
2021/08/11 08:09:03;;;;;;;;;;;18.50;95.00;;;;;;4317281;33;44305;-80
2021/08/11 08:11:30;;;;;;;;;;;18.50;95.00;;;;;;4317472;33;44124;-81
2021/08/11 08:13:57;;;;;;;;;;;18.50;95.00;;;;;;4316104;33;44269;-81
2021/08/11 08:16:24;;;;;;;;;;;18.50;95.00;;;;;;4316374;33;44283;-81
2021/08/11 08:18:54;;;;;;;;;;;18.50;95.00;;;;;;4316879;33;43910;-80
2021/08/11 08:21:24;;;;;;;;;;;18.50;95.00;;;;;;4316796;33;44825;-80
2021/08/11 08:23:51;;;;;;;;;;;18.50;95.00;;;;;;4315584;33;44042;-81
2021/08/11 08:26:18;;;;;;;;;;;18.50;95.40;;;;;;4315646;33;43355;-81
2021/08/11 08:28:48;;;;;;;;;;;18.50;95.10;;;;;;4316026;33;44006;-81
2021/08/11 08:31:17;;;;;;;;;;;18.50;95.10;;;;;;4316593;33;43899;-80
2021/08/11 08:33:45;;;;;;;;;;;18.50;95.10;;;;;;4316467;33;20002;-80
2021/08/11 08:36:15;;;;;;;;;;;18.50;95.10;;;;;;4316898;33;43966;-80
2021/08/11 08:38:47;;;;;;;;;;;18.50;95.10;;;;;;4316720;33;44260;-80
2021/08/11 08:41:14;;;;;;;;;;;18.60;95.20;;;;;;4316781;33;44581;-81
2021/08/11 08:43:44;;;;;;;;;;;18.50;95.20;;;;;;4315346;33;43478;-81
2021/08/11 08:46:12;;;;;;;;;;;18.60;95.20;;;;;;4316857;33;43954;-80
2021/08/11 08:48:42;;;;;;;;;;;18.60;95.20;;;;;;4317118;33;43188;-81
2021/08/11 08:51:10;;;;;;;;;;;18.60;95.20;;;;;;4316812;33;43324;-80
2021/08/11 08:53:39;;;;;;;;;;;18.50;95.20;;;;;;4316172;33;44098;-81
2021/08/11 08:56:06;;;;;;;;;;;18.60;95.20;;;;;;4315449;33;43194;-80
2021/08/11 08:58:33;;;;;;;;;;;18.60;95.20;;;;;;4315226;33;42945;-80
2021/08/11 09:01:03;;;;;;;;;;;18.60;95.20;;;;;;4315052;33;43193;-82
2021/08/11 09:03:33;;;;;;;;;;;18.60;95.20;;;;;;4314996;33;42983;-80
2021/08/11 09:06:01;;;;;;;;;;;18.60;95.20;;;;;;4315442;33;43482;-80
2021/08/11 09:08:31;;;;;;;;;;;18.60;95.20;;;;;;4316012;33;43256;-80
2021/08/11 09:10:58;;;;;;;;;;;18.60;95.30;;;;;;4316747;33;43571;-81
2021/08/11 09:13:31;;;;;;;;;;;18.70;95.20;;;;;;4314998;33;43826;-80
2021/08/11 09:16:04;;;;;;;;;;;18.60;95.20;;;;;;4314927;33;43487;-80
2021/08/11 09:18:31;;;;;;;;;;;18.70;95.30;;;;;;4316348;33;42367;-80
2021/08/11 09:20:58;;;;;;;;;;;18.70;95.30;;;;;;4314747;33;42774;-80
2021/08/11 09:23:43;;;;;;;;;;;18.70;95.20;;;;;;4315845;33;43577;-80
2021/08/11 09:26:11;;;;;;;;;;;18.70;95.30;;;;;;4315932;33;44585;-81
2021/08/11 09:28:39;;;;;;;;;;;18.70;95.30;;;;;;4316104;33;42884;-81
2021/08/11 09:31:39;;;;;;;;;;;18.70;95.30;;;;;;4315743;33;44252;-80
2021/08/11 09:34:07;;;;;;;;;;;18.70;95.30;;;;;;4283839;33;43481;-81
2021/08/11 09:36:40;;;;;;;;;;;18.70;95.30;;;;;;4316372;33;44069;-81
2021/08/11 09:39:11;;;;;;;;;;;18.70;95.30;;;;;;4316275;33;44254;-81
2021/08/11 09:41:56;;;;;;;;;;;18.70;95.30;;;;;;4316089;33;45147;-80
2021/08/11 09:44:23;;;;;;;;;;;18.70;95.30;;;;;;4314587;33;43032;-80
2021/08/11 09:46:52;;;;;;;;;;;18.70;95.30;;;;;;4314721;33;43767;-80
2021/08/11 09:49:21;;;;;;;;;;;18.80;95.30;;;;;;4315000;33;43940;-80
2021/08/11 09:51:58;;;;;;;;;;;18.80;95.30;;;;;;4316122;33;43206;-80
2021/08/11 09:54:26;;;;;;;;;;;18.80;95.30;;;;;;4315946;33;43185;-81
2021/08/11 09:56:58;;;;;;;;;;;18.80;95.30;;;;;;4315996;33;43727;-80
2021/08/11 09:59:27;;;;;;;;;;;18.80;95.30;;;;;;4314637;33;44532;-81
2021/08/11 10:02:13;;;;;;;;;;;18.80;95.30;;;;;;4315718;33;43588;-81
2021/08/11 10:04:41;;;;;;;;;;;18.80;95.30;;;;;;4315892;33;44282;-81
2021/08/11 10:07:10;;;;;;;;;;;18.80;95.30;;;;;;4315019;33;20002;-81
2021/08/11 10:09:40;;;;;;;;;;;18.90;95.30;;;;;;4316048;33;43923;-81
2021/08/11 10:12:24;;;;;;;;;;;18.90;95.30;;;;;;4314374;33;43031;-81
2021/08/11 10:14:51;;;;;;;;;;;18.90;95.30;;;;;;4317205;33;44077;-81
2021/08/11 10:17:19;;;;;;;;;;;18.90;95.30;;;;;;4317280;33;42917;-81
2021/08/11 10:19:48;;;;;;;;;;;18.90;95.30;;;;;;4318378;33;43528;-81
2021/08/11 10:22:19;;;;;;;;;;;18.90;95.30;;;;;;4318922;33;44749;-80
2021/08/11 10:24:55;;;;;;;;;;;18.90;95.30;;;;;;4317765;33;44327;-80
2021/08/11 10:27:23;;;;;;;;;;;18.90;95.30;;;;;;4318568;33;44925;-81
2021/08/11 10:29:53;;;;;;;;;;;19.00;95.30;;;;;;4318617;33;43863;-81
2021/08/11 10:32:21;;;;;;;;;;;19.00;95.30;;;;;;4317193;33;42407;-81
2021/08/11 10:34:51;;;;;;;;;;;19.00;95.30;;;;;;4317210;33;45001;-80
2021/08/11 10:37:23;;;;;;;;;;;19.00;95.30;;;;;;4319189;33;20009;-81
2021/08/11 10:39:52;;;;;;;;;;;19.00;95.30;;;;;;4318444;33;42787;-81
2021/08/11 10:42:19;;;;;;;;;;;19.00;95.30;;;;;;4317967;33;44626;-81
2021/08/11 10:44:49;;;;;;;;;;;19.00;95.30;;;;;;4317635;33;42704;-81
2021/08/11 10:47:16;;;;;;;;;;;19.00;95.20;;;;;;4318016;33;43002;-82
2021/08/11 10:49:54;;;;;;;;;;;19.00;95.30;;;;;;4316948;33;42664;-81
2021/08/11 10:52:24;;;;;;;;;;;19.10;95.30;;;;;;4318273;33;43323;-82
2021/08/11 10:54:58;;;;;;;;;;;19.10;95.30;;;;;;4317202;33;42375;-82
2021/08/11 10:57:44;;;;;;;;;;;19.10;95.20;;;;;;4317846;33;43642;-82
2021/08/11 11:00:20;;;;;;;;;;;19.10;95.20;;;;;;4318403;33;43481;-81
2021/08/11 11:02:49;;;;;;;;;;;19.20;95.30;;;;;;4317687;33;45742;-82
2021/08/11 11:05:23;;;;;;;;;;;19.20;95.20;;;;;;4317061;33;42787;-82
2021/08/11 11:08:12;;;;;;;;;;;19.20;95.20;;;;;;4318800;33;20423;-81
2021/08/11 11:10:39;;;;;;;;;;;19.30;95.10;;;;;;4318131;33;43276;-82
2021/08/11 11:13:36;;;;;;;;;;;19.30;95.10;;;;;;4317751;33;42665;-81
2021/08/11 11:16:08;;;;;;;;;;;19.30;95.00;;;;;;4300625;33;44196;-82
2021/08/11 11:18:37;;;;;;;;;;;19.30;95.00;;;;;;4317744;33;43669;-83
2021/08/11 11:21:04;;;;;;;;;;;19.40;95.00;;;;;;4317712;33;44722;-81
2021/08/11 11:23:35;;;;;;;;;;;19.30;95.00;;;;;;4317457;33;44634;-81
2021/08/11 11:26:04;;;;;;;;;;;19.40;95.00;;;;;;4317737;33;44199;-82
2021/08/11 11:28:51;;;;;;;;;;;19.40;94.90;;;;;;4316690;33;42878;-82
2021/08/11 11:31:32;;;;;;;;;;;19.40;94.90;;;;;;4318096;33;43928;-82
2021/08/11 11:34:18;;;;;;;;;;;19.40;94.80;;;;;;4317757;33;42951;-82
2021/08/11 11:37:06;;;;;;;;;;;19.40;94.80;;;;;;4317842;33;43896;-82
2021/08/11 11:39:46;;;;;;;;;;;19.40;94.80;;;;;;4309146;33;43998;-82
2021/08/11 11:42:22;;;;;;;;;;;19.40;94.80;;;;;;4317559;33;42289;-82
2021/08/11 11:44:58;;;;;;;;;;;19.40;94.80;;;;;;4317810;33;43155;-82
2021/08/11 11:47:40;;;;;;;;;;;19.50;94.80;;;;;;4317557;33;44271;-82
2021/08/11 11:50:20;;;;;;;;;;;19.40;94.80;;;;;;4317118;33;44826;-82
2021/08/11 11:52:48;;;;;;;;;;;19.40;94.90;;;;;;4317574;33;45239;-82
2021/08/11 11:55:34;;;;;;;;;;;19.50;94.90;;;;;;4317530;33;44219;-82
2021/08/11 11:58:05;;;;;;;;;;;19.50;94.90;;;;;;4317176;33;44633;-82
2021/08/11 12:00:35;;;;;;;;;;;19.50;94.80;;;;;;4316002;33;42859;-82
2021/08/11 12:03:04;;;;;;;;;;;19.50;94.90;;;;;;4317065;33;42207;-82
2021/08/11 12:05:47;;;;;;;;;;;19.60;94.90;;;;;;4317192;33;44011;-82
2021/08/11 12:08:16;;;;;;;;;;;19.60;94.90;;;;;;4317338;33;43895;-83
2021/08/11 12:10:45;;;;;;;;;;;19.60;94.90;;;;;;4316924;33;44392;-83
2021/08/11 12:13:15;;;;;;;;;;;19.60;94.90;;;;;;4317036;33;45935;-82
2021/08/11 12:15:49;;;;;;;;;;;19.60;94.80;;;;;;4316861;33;43050;-83
2021/08/11 12:18:19;;;;;;;;;;;19.60;94.80;;;;;;4316086;33;43010;-83
2021/08/11 12:20:49;;;;;;;;;;;19.60;94.80;;;;;;4317043;33;43638;-83
2021/08/11 12:23:22;;;;;;;;;;;19.60;94.80;;;;;;4316858;33;43140;-83
2021/08/11 12:25:59;;;;;;;;;;;19.70;94.80;;;;;;4316790;33;42292;-83
2021/08/11 12:28:36;;;;;;;;;;;19.70;94.90;;;;;;4316625;33;44997;-83
2021/08/11 12:31:07;;;;;;;;;;;19.70;94.70;;;;;;4317045;33;43370;-83
2021/08/11 12:33:36;;;;;;;;;;;19.80;94.80;;;;;;4315708;33;43819;-83
2021/08/11 12:36:08;;;;;;;;;;;19.80;94.80;;;;;;4315998;33;42862;-83
2021/08/11 12:38:39;;;;;;;;;;;19.90;94.80;;;;;;4315786;33;43186;-82
2021/08/11 12:41:13;;;;;;;;;;;19.90;94.80;;;;;;4316859;33;43816;-82
2021/08/11 12:43:43;;;;;;;;;;;19.90;94.60;;;;;;4315744;33;42733;-83
2021/08/11 12:46:13;;;;;;;;;;;20.00;94.70;;;;;;4315394;33;43360;-81
2021/08/11 12:48:40;;;;;;;;;;;20.00;94.70;;;;;;4316374;33;44150;-82
2021/08/11 12:51:19;;;;;;;;;;;20.10;94.70;;;;;;4316537;33;43480;-82
2021/08/11 12:54:00;;;;;;;;;;;20.10;94.60;;;;;;4316685;33;42704;-82
2021/08/11 12:56:27;;;;;;;;;;;20.10;94.60;;;;;;4316690;33;43529;-82
2021/08/11 12:58:59;;;;;;;;;;;20.10;94.60;;;;;;4317010;33;43278;-83
2021/08/11 13:01:30;;;;;;;;;;;20.20;94.50;;;;;;4315117;33;42697;-83
2021/08/11 13:03:57;;;;;;;;;;;20.20;94.50;;;;;;4316302;33;44553;-82
2021/08/11 13:06:51;;;;;;;;;;;20.20;94.50;;;;;;4315482;33;45267;-82
2021/08/11 13:09:22;;;;;;;;;;;20.20;94.50;;;;;;4313323;33;43915;-82
2021/08/11 13:11:55;;;;;;;;;;;20.20;94.40;;;;;;4317244;33;19998;-82
2021/08/11 13:14:44;;;;;;;;;;;20.20;94.40;;;;;;4315240;33;44166;-82
2021/08/11 13:17:19;;;;;;;;;;;20.30;94.40;;;;;;4315838;33;44974;-84
2021/08/11 13:20:06;;;;;;;;;;;20.30;94.40;;;;;;4316308;33;43068;-83
2021/08/11 13:22:33;;;;;;;;;;;20.30;94.50;;;;;;4316531;33;43981;-83
2021/08/11 13:25:00;;;;;;;;;;;20.30;94.50;;;;;;4315231;33;43740;-82
2021/08/11 13:27:27;;;;;;;;;;;20.30;94.50;;;;;;4314706;33;43662;-82
2021/08/11 13:30:06;;;;;;;;;;;20.40;94.50;;;;;;4314726;33;42986;-82
2021/08/11 13:32:34;;;;;;;;;;;20.40;94.50;;;;;;4315308;33;44953;-82
2021/08/11 13:35:05;;;;;;;;;;;20.40;94.50;;;;;;4315365;33;44685;-83
2021/08/11 13:37:33;;;;;;;;;;;20.50;94.50;;;;;;4315488;33;42681;-83
2021/08/11 13:40:10;;;;;;;;;;;20.50;94.50;;;;;;4315030;33;43303;-83
2021/08/11 13:42:37;;;;;;;;;;;20.50;94.40;;;;;;4317278;33;20057;-82
2021/08/11 13:45:09;;;;;;;;;;;20.50;94.30;;;;;;4315632;33;44053;-82
2021/08/11 13:47:38;;;;;;;;;;;20.60;94.40;;;;;;4315598;33;43474;-83
2021/08/11 13:50:06;;;;;;;;;;;20.60;94.30;;;;;;4315399;33;43456;-83
2021/08/11 13:52:33;;;;;;;;;;;20.60;94.30;;;;;;4316056;33;44150;-83
2021/08/11 13:55:03;;;;;;;;;;;20.60;94.30;;;;;;4314429;33;42596;-82
2021/08/11 13:57:30;;;;;;;;;;;20.70;94.30;;;;;;4315513;33;44183;-83
2021/08/11 13:59:57;;;;;;;;;;;20.70;94.20;;;;;;4314507;33;43725;-83
2021/08/11 14:02:24;;;;;;;;;;;20.70;94.30;;;;;;4314271;33;43760;-82
2021/08/11 14:04:52;;;;;;;;;;;20.70;94.30;;;;;;4315822;33;43782;-83
2021/08/11 14:07:22;;;;;;;;;;;20.70;94.20;;;;;;4315852;33;44243;-82
2021/08/11 14:09:54;;;;;;;;;;;20.80;94.20;;;;;;4315370;33;43908;-82
2021/08/11 14:12:23;;;;;;;;;;;20.80;94.10;;;;;;4315654;33;42719;-82
2021/08/11 14:14:50;;;;;;;;;;;20.80;94.20;;;;;;4315018;33;44277;-82
2021/08/11 14:17:19;;;;;;;;;;;20.90;94.00;;;;;;4314338;33;44058;-82
2021/08/11 14:19:52;;;;;;;;;;;20.90;94.10;;;;;;4315731;33;43779;-82
2021/08/11 14:22:19;;;;;;;;;;;20.90;94.00;;;;;;4314309;33;43385;-82
2021/08/11 14:24:46;;;;;;;;;;;20.90;94.00;;;;;;4314229;33;42079;-83
2021/08/11 14:27:13;;;;;;;;;;;20.90;94.00;;;;;;4315542;33;43020;-83
2021/08/11 14:29:41;;;;;;;;;;;21.00;94.00;;;;;;4315814;33;42941;-82
2021/08/11 14:32:08;;;;;;;;;;;21.00;93.90;;;;;;4314490;33;43207;-82